createdAt,value
2023-05-05T00:00:46.982Z,79.7
2023-05-05T00:02:03.270Z,79.3
2023-05-05T00:03:19.546Z,79.7
2023-05-05T00:04:35.850Z,80
2023-05-05T00:05:52.151Z,79.8
2023-05-05T00:07:08.439Z,80
2023-05-05T00:08:24.745Z,80.3
2023-05-05T00:09:41.025Z,80.9
2023-05-05T00:10:57.305Z,80.5
2023-05-05T00:12:13.611Z,80.6
2023-05-05T00:13:28.922Z,80.8
2023-05-05T00:14:45.217Z,80.8
2023-05-05T00:16:01.514Z,81
2023-05-05T00:17:17.000Z,81
2023-05-05T00:18:34.094Z,81.1
2023-05-05T00:19:50.377Z,81.3
2023-05-05T00:21:06.000Z,81.5
2023-05-05T00:22:22.972Z,81.6
2023-05-05T00:23:39.280Z,81.8
2023-05-05T00:24:55.000Z,82
2023-05-05T00:26:11.847Z,82
2023-05-05T00:27:28.144Z,82
2023-05-05T00:28:44.448Z,82.2
2023-05-05T00:29:59.755Z,82.1
2023-05-05T00:31:16.058Z,82.1
2023-05-05T00:32:32.000Z,82.2
2023-05-05T00:33:48.632Z,82.5
2023-05-05T00:35:04.920Z,82.6
2023-05-05T00:36:21.232Z,82.6
2023-05-05T00:37:37.537Z,82.3
2023-05-05T00:38:53.812Z,82.3
2023-05-05T00:40:10.110Z,82.6
2023-05-05T00:41:26.402Z,82.7
2023-05-05T00:42:42.696Z,82.8
2023-05-05T00:43:58.997Z,82.9
2023-05-05T00:45:15.270Z,83.1
2023-05-05T00:46:30.597Z,83
2023-05-05T00:47:46.890Z,83.3
2023-05-05T00:49:03.170Z,83.5
2023-05-05T00:50:19.465Z,83.8
2023-05-05T00:51:35.763Z,84.2
2023-05-05T00:52:52.076Z,84.5
2023-05-05T00:54:08.000Z,84.8
2023-05-05T00:55:24.661Z,84.9
2023-05-05T00:56:40.944Z,85.1
2023-05-05T00:57:57.229Z,85.4
2023-05-05T00:59:13.550Z,85.6
2023-05-05T01:00:29.000Z,85.9
2023-05-05T01:01:46.121Z,86
2023-05-05T01:03:01.440Z,86
2023-05-05T01:04:17.718Z,86
2023-05-05T01:05:34.017Z,86.2
2023-05-05T01:06:50.327Z,86.2
2023-05-05T01:08:06.601Z,86.2
2023-05-05T01:09:22.917Z,86
2023-05-05T01:10:39.198Z,86.3
2023-05-05T01:11:55.491Z,86.5
2023-05-05T01:13:11.792Z,86.5
2023-05-05T01:14:28.083Z,86.8
2023-05-05T01:15:44.376Z,86.9
2023-05-05T01:17:00.677Z,86.8
2023-05-05T01:18:16.971Z,86.8
2023-05-05T01:19:32.267Z,86.8
2023-05-05T01:20:48.569Z,86.8
2023-05-05T01:22:04.880Z,86.9
2023-05-05T01:23:21.000Z,86.9
2023-05-05T01:24:37.441Z,86.9
2023-05-05T01:25:53.743Z,86.9
2023-05-05T01:27:10.000Z,86.9
2023-05-05T01:28:26.337Z,86.7
2023-05-05T01:29:42.621Z,86.6
2023-05-05T01:30:58.925Z,86.6
2023-05-05T01:32:15.230Z,86.6
2023-05-05T01:33:31.000Z,86.7
2023-05-05T01:34:47.822Z,86.6
2023-05-05T01:36:03.116Z,86.5
2023-05-05T01:37:19.406Z,86.5
2023-05-05T01:38:35.703Z,86.5
2023-05-05T01:39:51.996Z,86.7
2023-05-05T01:41:08.287Z,86.7
2023-05-05T01:42:23.605Z,86.6
2023-05-05T01:43:39.891Z,86.3
2023-05-05T01:44:56.184Z,86.4
2023-05-05T01:46:12.497Z,86.3
2023-05-05T01:47:28.782Z,86.1
2023-05-05T01:48:45.089Z,86
2023-05-05T01:50:01.361Z,85.7
2023-05-05T01:51:17.000Z,85.4
2023-05-05T01:52:33.954Z,85.8
2023-05-05T01:53:50.256Z,85.9
2023-05-05T01:55:06.538Z,85.8
2023-05-05T01:56:22.854Z,85.6
2023-05-05T01:57:39.130Z,85.5
2023-05-05T01:58:54.437Z,85.1
2023-05-05T02:00:10.750Z,85.6
2023-05-05T02:01:27.000Z,85.9
2023-05-05T02:02:43.320Z,85.9
2023-05-05T02:03:59.622Z,86
2023-05-05T02:05:15.927Z,86.1
2023-05-05T02:06:32.222Z,86
2023-05-05T02:07:48.518Z,86.1
2023-05-05T02:09:04.805Z,86
2023-05-05T02:10:21.088Z,85.8
2023-05-05T02:11:37.393Z,85.6
2023-05-05T02:12:53.687Z,85.6
2023-05-05T02:14:09.978Z,84.9
2023-05-05T02:15:25.279Z,84.4
2023-05-05T02:16:41.581Z,84.3
2023-05-05T02:17:57.872Z,84.7
2023-05-05T02:19:14.164Z,84.6
2023-05-05T02:20:30.463Z,85.6
2023-05-05T02:21:46.759Z,85.7
2023-05-05T02:23:03.041Z,85.6
2023-05-05T02:24:19.342Z,85.6
2023-05-05T02:25:35.646Z,85.7
2023-05-05T02:26:51.935Z,86
2023-05-05T02:28:08.229Z,85.8
2023-05-05T02:29:24.515Z,85.7
2023-05-05T02:30:40.822Z,86
2023-05-05T02:31:56.123Z,86
2023-05-05T02:33:12.423Z,85.9
2023-05-05T02:34:28.715Z,85.7
2023-05-05T02:35:45.015Z,85.7
2023-05-05T02:37:01.295Z,85.5
2023-05-05T02:38:17.593Z,85.8
2023-05-05T02:39:33.890Z,86
2023-05-05T02:40:50.181Z,86.1
2023-05-05T02:42:06.481Z,86.2
2023-05-05T02:43:22.770Z,86.2
2023-05-05T02:44:39.074Z,86.5
2023-05-05T02:45:55.351Z,86.7
2023-05-05T02:47:11.645Z,86.8
2023-05-05T02:48:26.983Z,86.9
2023-05-05T02:49:43.255Z,87
2023-05-05T02:50:59.562Z,87.1
2023-05-05T02:52:15.844Z,87.2
2023-05-05T02:53:32.143Z,87.2
2023-05-05T02:54:48.425Z,87.1
2023-05-05T02:56:04.000Z,87
2023-05-05T02:57:21.032Z,87
2023-05-05T02:58:37.000Z,87.1
2023-05-05T02:59:53.623Z,87.1
2023-05-05T03:01:09.911Z,87.2
2023-05-05T03:02:26.204Z,87.3
2023-05-05T03:03:42.509Z,87.5
2023-05-05T03:04:57.812Z,87.7
2023-05-05T03:06:14.104Z,87.8
2023-05-05T03:07:30.000Z,88.1
2023-05-05T03:08:46.634Z,88.1
2023-05-05T03:10:02.889Z,88.3
2023-05-05T03:11:19.130Z,88.3
2023-05-05T03:12:35.356Z,88.3
2023-05-05T03:13:51.659Z,88.3
2023-05-05T03:15:07.961Z,88.2
2023-05-05T03:16:24.201Z,88.1
2023-05-05T03:17:40.453Z,88.2
2023-05-05T03:18:56.679Z,87.8
2023-05-05T03:20:12.932Z,88.2
2023-05-05T03:21:28.193Z,88.2
2023-05-05T03:22:44.440Z,88.3
2023-05-05T03:24:00.664Z,88.3
2023-05-05T03:25:16.903Z,88.4
2023-05-05T03:26:33.151Z,88.4
2023-05-05T03:27:49.384Z,88.2
2023-05-05T03:29:05.000Z,88.3
2023-05-05T03:30:21.858Z,88.2
2023-05-05T03:31:38.112Z,88.1
2023-05-05T03:32:54.347Z,88.1
2023-05-05T03:34:10.000Z,88
2023-05-05T03:35:26.844Z,88.1
2023-05-05T03:36:43.069Z,88.1
2023-05-05T03:37:58.337Z,88.1
2023-05-05T03:39:14.574Z,88.1
2023-05-05T03:40:30.000Z,88.1
2023-05-05T03:41:47.059Z,88
2023-05-05T03:43:03.288Z,87.8
2023-05-05T03:44:19.521Z,88.2
2023-05-05T03:45:35.770Z,88.2
2023-05-05T03:46:52.002Z,88.1
2023-05-05T03:48:08.249Z,88
2023-05-05T03:49:24.488Z,88
2023-05-05T03:50:40.727Z,88.1
2023-05-05T03:51:56.982Z,88
2023-05-05T03:53:13.208Z,87.9
2023-05-05T03:54:28.461Z,88.1
2023-05-05T03:55:44.706Z,88.1
2023-05-05T03:57:00.000Z,87.7
2023-05-05T03:58:17.196Z,87.7
2023-05-05T03:59:33.427Z,87.8
2023-05-05T04:00:49.658Z,87.7
2023-05-05T04:02:05.901Z,87.4
2023-05-05T04:03:22.149Z,87.4
2023-05-05T04:04:38.401Z,87.4
2023-05-05T04:05:54.627Z,87.2
2023-05-05T04:07:10.859Z,87.3
2023-05-05T04:08:27.100Z,87.2
2023-05-05T04:09:43.348Z,87.5
2023-05-05T04:10:58.607Z,87.4
2023-05-05T04:12:14.859Z,87.1
2023-05-05T04:13:31.083Z,87.3
2023-05-05T04:14:47.323Z,87.3
2023-05-05T04:16:03.574Z,87.5
2023-05-05T04:17:19.806Z,87.5
2023-05-05T04:18:36.043Z,87.2
2023-05-05T04:19:52.279Z,87.4
2023-05-05T04:21:08.519Z,87.1
2023-05-05T04:22:24.768Z,87.1
2023-05-05T04:23:41.005Z,87.3
2023-05-05T04:24:57.257Z,87.1
2023-05-05T04:26:13.488Z,86.7
2023-05-05T04:27:28.737Z,86.9
2023-05-05T04:28:44.986Z,86.4
2023-05-05T04:30:01.000Z,86.6
2023-05-05T04:31:17.473Z,86
2023-05-05T04:32:33.000Z,85.8
2023-05-05T04:33:49.950Z,85.7
2023-05-05T04:35:06.199Z,85.3
2023-05-05T04:36:22.434Z,85.3
2023-05-05T04:37:38.669Z,84.9
2023-05-05T04:38:54.904Z,84.9
2023-05-05T04:40:11.159Z,84.7
2023-05-05T04:41:27.388Z,84.2
2023-05-05T04:42:43.636Z,83.7
2023-05-05T04:43:58.877Z,82.6
2023-05-05T04:45:15.137Z,83
2023-05-05T04:46:31.359Z,83.1
2023-05-05T04:47:47.604Z,82.5
2023-05-05T04:49:03.847Z,82.2
2023-05-05T04:50:20.088Z,82.4
2023-05-05T04:51:36.324Z,81.7
2023-05-05T04:52:52.559Z,81.6
2023-05-05T04:54:08.797Z,81.9
2023-05-05T04:55:25.039Z,81.8
2023-05-05T04:56:41.000Z,82.3
2023-05-05T04:57:57.538Z,82.3
2023-05-05T04:59:13.774Z,81.8
2023-05-05T05:00:29.018Z,82
2023-05-05T05:01:45.260Z,82.2
2023-05-05T05:03:01.513Z,81.3
2023-05-05T05:04:17.749Z,81.5
2023-05-05T05:05:33.991Z,81.3
2023-05-05T05:06:50.237Z,82
2023-05-05T05:08:06.464Z,81.2
2023-05-05T05:09:22.709Z,80.7
2023-05-05T05:10:38.951Z,80.7
2023-05-05T05:11:55.180Z,80.8
2023-05-05T05:13:11.423Z,81
2023-05-05T05:14:27.000Z,81
2023-05-05T05:15:43.910Z,80.7
2023-05-05T05:16:59.162Z,81.2
2023-05-05T05:18:15.403Z,80
2023-05-05T05:19:31.650Z,79.7
2023-05-05T05:20:47.883Z,79.9
2023-05-05T05:22:04.126Z,79.4
2023-05-05T05:23:20.368Z,79.3
2023-05-05T05:24:36.603Z,79.1
2023-05-05T05:25:52.849Z,79.2
2023-05-05T05:27:09.084Z,79.1
2023-05-05T05:28:25.338Z,79.4
2023-05-05T05:29:41.575Z,78.9
2023-05-05T05:30:57.804Z,78.6
2023-05-05T05:32:14.043Z,78.4
2023-05-05T05:33:29.302Z,78.2
2023-05-05T05:34:45.555Z,78.1
2023-05-05T05:36:01.000Z,78
2023-05-05T05:37:18.024Z,77.9
2023-05-05T05:38:34.273Z,77.9
2023-05-05T05:39:50.495Z,77.7
2023-05-05T05:41:06.751Z,77.5
2023-05-05T05:42:22.999Z,77.2
2023-05-05T05:43:39.224Z,76.7
2023-05-05T05:44:55.468Z,76.5
2023-05-05T05:46:11.703Z,76.3
2023-05-05T05:47:27.940Z,75.7
2023-05-05T05:48:44.178Z,75.3
2023-05-05T05:49:59.442Z,75.5
2023-05-05T05:51:15.687Z,75.5
2023-05-05T05:52:31.915Z,76.9
2023-05-05T05:53:48.000Z,75.1
2023-05-05T05:55:04.391Z,74.8
2023-05-05T05:56:20.647Z,74.5
2023-05-05T05:57:35.898Z,74.6
2023-05-05T05:58:52.140Z,74.2
2023-05-05T06:00:08.381Z,73.5
2023-05-05T06:01:24.625Z,73.6
2023-05-05T06:02:40.855Z,73.2
2023-05-05T06:03:57.100Z,72.2
2023-05-05T06:05:13.336Z,72.5
2023-05-05T06:06:29.577Z,72
2023-05-05T06:07:45.815Z,71.7
2023-05-05T06:09:02.000Z,71.6
2023-05-05T06:10:18.313Z,71.3
2023-05-05T06:11:34.000Z,71
2023-05-05T06:12:50.786Z,70
2023-05-05T06:14:06.025Z,69.3
2023-05-05T06:15:22.273Z,69.2
2023-05-05T06:16:38.511Z,68.4
2023-05-05T06:17:54.763Z,69
2023-05-05T06:19:10.989Z,69.1
2023-05-05T06:20:27.233Z,68.9
2023-05-05T06:21:43.473Z,69.2
2023-05-05T06:22:59.716Z,68.2
2023-05-05T06:24:15.954Z,67.6
2023-05-05T06:25:32.186Z,68.3
2023-05-05T06:26:48.444Z,67.8
2023-05-05T06:28:04.671Z,69.5
2023-05-05T06:29:20.910Z,66.4
2023-05-05T06:30:36.161Z,65.8
2023-05-05T06:31:52.402Z,65.9
2023-05-05T06:33:08.634Z,66.9
2023-05-05T06:34:24.873Z,66.2
2023-05-05T06:35:41.123Z,67
2023-05-05T06:36:57.361Z,65.7
2023-05-05T06:38:13.605Z,67.1
2023-05-05T06:39:29.833Z,65.5
2023-05-05T06:40:46.073Z,65.3
2023-05-05T06:42:02.315Z,65.2
2023-05-05T06:43:18.000Z,64.8
2023-05-05T06:44:34.796Z,64.9
2023-05-05T06:45:51.046Z,64.3
2023-05-05T06:47:06.283Z,64.2
2023-05-05T06:48:22.538Z,63.8
2023-05-05T06:49:38.762Z,64.5
2023-05-05T06:50:55.005Z,64.2
2023-05-05T06:52:11.252Z,63
2023-05-05T06:53:27.480Z,62.9
2023-05-05T06:54:43.000Z,63.4
2023-05-05T06:55:59.958Z,64.3
2023-05-05T06:57:16.193Z,63.8
2023-05-05T06:58:32.432Z,64.2
2023-05-05T06:59:48.678Z,63.4
2023-05-05T07:01:04.928Z,62.7
2023-05-05T07:02:21.169Z,62.7
2023-05-05T07:03:36.416Z,62.4
2023-05-05T07:04:52.000Z,63
2023-05-05T07:06:08.884Z,61.3
2023-05-05T07:07:25.129Z,61.9
2023-05-05T07:08:41.367Z,60.8
2023-05-05T07:09:57.602Z,62.1
2023-05-05T07:11:13.846Z,62.6
2023-05-05T07:12:30.087Z,62.5
2023-05-05T07:13:46.320Z,61.8
2023-05-05T07:15:02.557Z,62.7
2023-05-05T07:16:18.804Z,62.2
2023-05-05T07:17:35.039Z,62.2
2023-05-05T07:18:51.288Z,60.9
2023-05-05T07:20:06.530Z,60.5
2023-05-05T07:21:22.777Z,61.3
2023-05-05T07:22:39.012Z,61.4
2023-05-05T07:23:55.255Z,61
2023-05-05T07:25:11.489Z,62
2023-05-05T07:26:27.735Z,60
2023-05-05T07:27:43.959Z,59
2023-05-05T07:29:00.195Z,60
2023-05-05T07:30:16.430Z,60.3
2023-05-05T07:31:32.658Z,60.1
2023-05-05T07:32:48.919Z,59
2023-05-05T07:34:05.156Z,58
2023-05-05T07:35:21.394Z,57
2023-05-05T07:36:36.651Z,57.3
2023-05-05T07:37:52.874Z,56.3
2023-05-05T07:39:09.134Z,56.9
2023-05-05T07:40:25.346Z,56.5
2023-05-05T07:41:41.603Z,56
2023-05-05T07:42:57.845Z,56.4
2023-05-05T07:44:14.086Z,56.1
2023-05-05T07:45:30.335Z,56.4
2023-05-05T07:46:46.540Z,55.4
2023-05-05T07:48:02.801Z,55.5
2023-05-05T07:49:19.050Z,56.4
2023-05-05T07:50:35.277Z,56
2023-05-05T07:51:51.517Z,55.4
2023-05-05T07:53:06.778Z,54.9
2023-05-05T07:54:22.994Z,55.5
2023-05-05T07:55:39.256Z,55.3
2023-05-05T07:56:55.484Z,55
2023-05-05T07:58:11.737Z,54.9
2023-05-05T07:59:27.968Z,55.4
2023-05-05T08:00:44.213Z,54.4
2023-05-05T08:02:00.440Z,53.7
2023-05-05T08:03:16.681Z,54.7
2023-05-05T08:04:32.897Z,55.1
2023-05-05T08:05:49.137Z,57.3
2023-05-05T08:07:05.383Z,57.3
2023-05-05T08:08:21.620Z,55.4
2023-05-05T08:09:36.872Z,57.8
2023-05-05T08:10:53.131Z,56.3
2023-05-05T08:12:09.344Z,56
2023-05-05T08:13:25.582Z,56.6
2023-05-05T08:14:41.824Z,58.4
2023-05-05T08:15:58.061Z,56.9
2023-05-05T08:17:14.000Z,58.9
2023-05-05T08:18:30.559Z,58
2023-05-05T08:19:46.784Z,55.3
2023-05-05T08:21:03.023Z,55.2
2023-05-05T08:22:19.279Z,53.9
2023-05-05T08:23:35.510Z,55.2
2023-05-05T08:24:51.733Z,54.9
2023-05-05T08:26:07.001Z,56
2023-05-05T08:27:23.246Z,53
2023-05-05T08:28:39.490Z,52.9
2023-05-05T08:29:55.701Z,53.1
2023-05-05T08:31:11.970Z,51.4
2023-05-05T08:32:28.216Z,50.4
2023-05-05T08:33:44.451Z,49.3
2023-05-05T08:35:00.693Z,51.4
2023-05-05T08:36:16.897Z,48.7
2023-05-05T08:37:33.161Z,50
2023-05-05T08:38:49.392Z,50.5
2023-05-05T08:40:05.613Z,50.8
2023-05-05T08:41:21.854Z,48.8
2023-05-05T08:42:37.140Z,50.5
2023-05-05T08:43:53.366Z,48.8
2023-05-05T08:45:09.615Z,50.1
2023-05-05T08:46:25.842Z,49.3
2023-05-05T08:47:42.063Z,48.8
2023-05-05T08:48:58.305Z,48.9
2023-05-05T08:50:14.569Z,51.1
2023-05-05T08:51:30.805Z,47.6
2023-05-05T08:52:47.037Z,50
2023-05-05T08:54:03.294Z,49.4
2023-05-05T08:55:19.498Z,47.5
2023-05-05T08:56:35.000Z,49.8
2023-05-05T08:57:51.977Z,48.4
2023-05-05T08:59:07.250Z,46.2
2023-05-05T09:00:23.489Z,48.9
2023-05-05T09:01:39.728Z,47.2
2023-05-05T09:02:55.985Z,46.7
2023-05-05T09:04:12.000Z,46.2
2023-05-05T09:05:28.446Z,47.4
2023-05-05T09:06:44.666Z,46.2
2023-05-05T09:08:00.902Z,47.2
2023-05-05T09:09:17.164Z,45.9
2023-05-05T09:10:33.407Z,46.9
2023-05-05T09:11:49.619Z,46.7
2023-05-05T09:13:05.886Z,45.3
2023-05-05T09:14:22.108Z,44.7
2023-05-05T09:15:37.382Z,46.4
2023-05-05T09:16:53.603Z,45.1
2023-05-05T09:18:09.831Z,46.1
2023-05-05T09:19:26.105Z,46.4
2023-05-05T09:20:42.319Z,46
2023-05-05T09:21:58.555Z,45.7
2023-05-05T09:23:14.810Z,44.1
2023-05-05T09:24:31.066Z,45.3
2023-05-05T09:25:47.267Z,43.8
2023-05-05T09:27:03.000Z,43.4
2023-05-05T09:28:19.754Z,42
2023-05-05T09:29:36.014Z,40.3
2023-05-05T09:30:52.257Z,41.5
2023-05-05T09:32:07.485Z,42.1
2023-05-05T09:33:23.748Z,42.9
2023-05-05T09:34:39.000Z,43
2023-05-05T09:35:56.205Z,43.1
2023-05-05T09:37:12.467Z,43
2023-05-05T09:38:28.000Z,44.3
2023-05-05T09:39:44.921Z,45.8
2023-05-05T09:41:01.169Z,44.6
2023-05-05T09:42:17.439Z,44.3
2023-05-05T09:43:33.667Z,46.7
2023-05-05T09:44:49.912Z,44.8
2023-05-05T09:46:06.154Z,45
2023-05-05T09:47:22.397Z,41.7
2023-05-05T09:48:38.633Z,42.3
2023-05-05T09:49:53.876Z,43.6
2023-05-05T09:51:10.134Z,42.2
2023-05-05T09:52:26.375Z,42.2
2023-05-05T09:53:42.592Z,45.7
2023-05-05T09:54:58.851Z,43.1
2023-05-05T09:56:15.073Z,43.3
2023-05-05T09:57:31.310Z,43.7
2023-05-05T09:58:47.553Z,43.4
2023-05-05T10:00:03.793Z,44.3
2023-05-05T10:01:20.037Z,42.5
2023-05-05T10:02:36.292Z,43.2
2023-05-05T10:03:52.514Z,43.4
2023-05-05T10:05:08.759Z,44.8
2023-05-05T10:06:24.036Z,44.6
2023-05-05T10:07:40.248Z,45.4
2023-05-05T10:08:56.517Z,46
2023-05-05T10:10:12.750Z,43.4
2023-05-05T10:11:29.000Z,42
2023-05-05T10:12:44.228Z,41.5
2023-05-05T10:14:00.494Z,42.6
2023-05-05T10:15:16.725Z,41.5
2023-05-05T10:16:32.951Z,40.9
2023-05-05T10:17:49.187Z,41
2023-05-05T10:19:05.426Z,42
2023-05-05T10:20:21.668Z,43.7
2023-05-05T10:21:37.935Z,41.1
2023-05-05T10:22:54.181Z,43.3
2023-05-05T10:24:10.430Z,43.7
2023-05-05T10:25:26.664Z,43.2
2023-05-05T10:26:42.893Z,43.1
2023-05-05T10:27:59.000Z,39.3
2023-05-05T10:29:14.366Z,40.1
2023-05-05T10:30:30.604Z,42.7
2023-05-05T10:31:46.879Z,40.9
2023-05-05T10:33:03.082Z,39.3
2023-05-05T10:34:19.332Z,41.3
2023-05-05T10:35:35.592Z,41.8
2023-05-05T10:36:51.802Z,40.5
2023-05-05T10:38:08.056Z,40.2
2023-05-05T10:39:24.279Z,39.9
2023-05-05T10:40:40.529Z,38.8
2023-05-05T10:41:56.757Z,41.1
2023-05-05T10:43:12.998Z,40.9
2023-05-05T10:44:29.000Z,41
2023-05-05T10:45:44.518Z,42.1
2023-05-05T10:47:00.761Z,42
2023-05-05T10:48:16.975Z,39
2023-05-05T10:49:33.222Z,39.5
2023-05-05T10:50:49.000Z,40.5
2023-05-05T10:52:05.000Z,40.5
2023-05-05T10:53:21.947Z,41.6
2023-05-05T10:54:38.184Z,41
2023-05-05T10:55:54.419Z,38.9
2023-05-05T10:57:10.673Z,39.9
2023-05-05T10:58:26.892Z,39.7
2023-05-05T10:59:43.127Z,39.4
2023-05-05T11:00:59.365Z,39.4
2023-05-05T11:02:14.620Z,40.4
2023-05-05T11:03:30.883Z,37.3
2023-05-05T11:04:47.094Z,38.3
2023-05-05T11:06:03.373Z,39
2023-05-05T11:07:19.585Z,38.4
2023-05-05T11:08:35.821Z,38.2
2023-05-05T11:09:52.086Z,37.3
2023-05-05T11:11:08.324Z,38.3
2023-05-05T11:12:24.535Z,38.9
2023-05-05T11:13:40.772Z,38
2023-05-05T11:14:57.000Z,38.1
2023-05-05T11:16:13.272Z,36.9
2023-05-05T11:17:29.496Z,38.5
2023-05-05T11:18:44.743Z,39.1
2023-05-05T11:20:01.000Z,42
2023-05-05T11:21:17.225Z,38.8
2023-05-05T11:22:33.452Z,39.1
2023-05-05T11:23:49.000Z,40.4
2023-05-05T11:25:05.935Z,39
2023-05-05T11:26:22.000Z,40.8
2023-05-05T11:27:38.437Z,40.8
2023-05-05T11:28:54.648Z,40.1
2023-05-05T11:30:10.919Z,39
2023-05-05T11:31:27.135Z,39.3
2023-05-05T11:32:43.405Z,39.5
2023-05-05T11:33:59.600Z,36.1
2023-05-05T11:35:14.869Z,35.5
2023-05-05T11:36:31.104Z,36
2023-05-05T11:37:47.333Z,38.7
2023-05-05T11:39:03.569Z,37
2023-05-05T11:40:19.808Z,37.1
2023-05-05T11:41:36.057Z,36.5
2023-05-05T11:42:52.299Z,37
2023-05-05T11:44:08.535Z,35.6
2023-05-05T11:45:24.771Z,35.9
2023-05-05T11:46:41.017Z,34.3
2023-05-05T11:47:57.268Z,33.8
2023-05-05T11:49:13.510Z,34.4
2023-05-05T11:50:29.716Z,33.7
2023-05-05T11:51:45.001Z,35.5
2023-05-05T11:53:01.244Z,35.9
2023-05-05T11:54:17.474Z,34.9
2023-05-05T11:55:33.695Z,34.9
2023-05-05T11:56:49.924Z,36.2
2023-05-05T11:58:06.174Z,35.3
2023-05-05T11:59:22.410Z,35.7
2023-05-05T12:00:38.640Z,34.9
2023-05-05T12:01:54.911Z,32.2
2023-05-05T12:03:11.127Z,32.1
2023-05-05T12:04:27.386Z,33.3
2023-05-05T12:05:43.598Z,34.9
2023-05-05T12:06:59.836Z,33.8
2023-05-05T12:08:15.087Z,32.9
2023-05-05T12:09:31.332Z,33.3
2023-05-05T12:10:47.602Z,33.2
2023-05-05T12:12:03.801Z,34.9
2023-05-05T12:13:20.075Z,34.9
2023-05-05T12:14:36.289Z,36.1
2023-05-05T12:15:52.521Z,33.6
2023-05-05T12:17:08.767Z,32.5
2023-05-05T12:18:24.995Z,35.4
2023-05-05T12:19:41.264Z,35.7
2023-05-05T12:20:57.509Z,33.9
2023-05-05T12:22:13.713Z,36.7
2023-05-05T12:23:29.986Z,34.4
2023-05-05T12:24:45.223Z,33.7
2023-05-05T12:26:01.474Z,32.9
2023-05-05T12:27:17.724Z,32
2023-05-05T12:28:33.958Z,36.1
2023-05-05T12:29:50.194Z,36.2
2023-05-05T12:31:06.429Z,34.7
2023-05-05T12:32:22.676Z,36
2023-05-05T12:33:38.875Z,35.9
2023-05-05T12:34:55.000Z,35.7
2023-05-05T12:36:11.354Z,37
2023-05-05T12:37:27.620Z,35.5
2023-05-05T12:38:43.859Z,38.2
2023-05-05T12:40:00.096Z,36.7
2023-05-05T12:41:15.327Z,36
2023-05-05T12:42:31.598Z,36.8
2023-05-05T12:43:47.806Z,35.5
2023-05-05T12:45:04.067Z,37.5
2023-05-05T12:46:20.281Z,36
2023-05-05T12:47:36.000Z,35.4
2023-05-05T12:48:52.794Z,34
2023-05-05T12:50:09.000Z,36.6
2023-05-05T12:51:25.235Z,35.7
2023-05-05T12:52:41.510Z,36.8
2023-05-05T12:53:57.727Z,37.3
2023-05-05T12:55:13.988Z,37.6
2023-05-05T12:56:30.224Z,38.9
2023-05-05T12:57:45.443Z,37
2023-05-05T12:59:01.685Z,39.2
2023-05-05T13:00:17.933Z,38
2023-05-05T13:01:34.169Z,38.2
2023-05-05T13:02:50.444Z,37.6
2023-05-05T13:04:06.682Z,36.6
2023-05-05T13:05:22.000Z,35.8
2023-05-05T13:06:39.160Z,36.2
2023-05-05T13:07:55.388Z,36.2
2023-05-05T13:09:11.606Z,36.5
2023-05-05T13:10:27.847Z,36
2023-05-05T13:11:44.074Z,35.6
2023-05-05T13:13:00.321Z,34.2
2023-05-05T13:14:15.619Z,35.4
2023-05-05T13:15:31.817Z,35.9
2023-05-05T13:16:48.047Z,34.8
2023-05-05T13:18:04.285Z,36.1
2023-05-05T13:19:20.556Z,36.3
2023-05-05T13:20:36.766Z,34.8
2023-05-05T13:21:53.008Z,36
2023-05-05T13:23:09.283Z,35.6
2023-05-05T13:24:25.491Z,35.6
2023-05-05T13:25:41.735Z,35
2023-05-05T13:26:58.007Z,34.7
2023-05-05T13:28:14.242Z,35.2
2023-05-05T13:29:30.469Z,35.3
2023-05-05T13:30:45.735Z,36.2
2023-05-05T13:32:01.964Z,36.4
2023-05-05T13:33:18.175Z,33.9
2023-05-05T13:34:34.000Z,34.6
2023-05-05T13:35:50.660Z,34.9
2023-05-05T13:37:06.924Z,35.7
2023-05-05T13:38:23.124Z,35
2023-05-05T13:39:39.364Z,35.8
2023-05-05T13:40:55.620Z,34.8
2023-05-05T13:42:11.842Z,35
2023-05-05T13:43:28.099Z,33.6
2023-05-05T13:44:44.329Z,34.2
2023-05-05T13:46:00.559Z,34.8
2023-05-05T13:47:15.825Z,34.5
2023-05-05T13:48:32.064Z,35.2
2023-05-05T13:49:48.297Z,34.8
2023-05-05T13:51:04.000Z,34.8
2023-05-05T13:52:20.779Z,34.5
2023-05-05T13:53:37.055Z,36.4
2023-05-05T13:54:53.262Z,34.5
2023-05-05T13:56:09.532Z,34.9
2023-05-05T13:57:25.736Z,35.9
2023-05-05T13:58:41.967Z,36
2023-05-05T13:59:58.250Z,37.2
2023-05-05T14:01:14.482Z,38.2
2023-05-05T14:02:30.689Z,39.3
2023-05-05T14:03:45.956Z,38.9
2023-05-05T14:05:02.184Z,38.4
2023-05-05T14:06:18.427Z,37.9
2023-05-05T14:07:34.655Z,38.6
2023-05-05T14:08:50.949Z,39.3
2023-05-05T14:10:07.140Z,39.1
2023-05-05T14:11:23.378Z,38.1
2023-05-05T14:12:39.612Z,39.3
2023-05-05T14:13:55.851Z,39.8
2023-05-05T14:15:12.093Z,41.2
2023-05-05T14:16:28.340Z,41.5
2023-05-05T14:17:44.000Z,41.3
2023-05-05T14:19:00.825Z,38.8
2023-05-05T14:20:17.179Z,38.5
2023-05-05T14:21:33.408Z,38.8
2023-05-05T14:22:49.650Z,40.2
2023-05-05T14:24:05.887Z,40.5
2023-05-05T14:25:22.179Z,41.5
2023-05-05T14:26:38.374Z,40.5
2023-05-05T14:27:53.664Z,38.8
2023-05-05T14:29:09.000Z,38.2
2023-05-05T14:30:26.147Z,39.9
2023-05-05T14:31:42.341Z,41.6
2023-05-05T14:32:58.612Z,41.8
2023-05-05T14:34:14.857Z,40.5
2023-05-05T14:35:31.094Z,42.5
2023-05-05T14:36:47.334Z,40.9
2023-05-05T14:38:03.584Z,41.6
2023-05-05T14:39:19.784Z,40.8
2023-05-05T14:40:36.058Z,41.4
2023-05-05T14:41:52.257Z,41.5
2023-05-05T14:43:08.524Z,42.6
2023-05-05T14:44:23.000Z,42.5
2023-05-05T14:45:40.000Z,43
2023-05-05T14:46:56.269Z,43.3
2023-05-05T14:48:12.461Z,43.8
2023-05-05T14:49:28.693Z,43.7
2023-05-05T14:50:44.933Z,43.3
2023-05-05T14:52:01.170Z,43.7
2023-05-05T14:53:17.410Z,42
2023-05-05T14:54:33.701Z,41.7
2023-05-05T14:55:49.000Z,42.4
2023-05-05T14:57:06.136Z,42.3
2023-05-05T14:58:22.366Z,42.5
2023-05-05T14:59:38.606Z,43
2023-05-05T15:00:53.903Z,44.4
2023-05-05T15:02:10.101Z,45.6
2023-05-05T15:03:26.339Z,45.6
2023-05-05T15:04:42.583Z,44.7
2023-05-05T15:05:58.860Z,45.4
2023-05-05T15:07:15.063Z,44.4
2023-05-05T15:08:31.297Z,44.8
2023-05-05T15:09:47.526Z,44.8
2023-05-05T15:11:03.771Z,44.5
2023-05-05T15:12:20.006Z,44.1
2023-05-05T15:13:36.282Z,44.1
2023-05-05T15:14:52.478Z,45
2023-05-05T15:16:08.732Z,44.1
2023-05-05T15:17:24.017Z,44.4
2023-05-05T15:18:40.255Z,44.8
2023-05-05T15:19:56.449Z,45.9
2023-05-05T15:21:12.726Z,45
2023-05-05T15:22:28.939Z,44.3
2023-05-05T15:23:45.168Z,44.1
2023-05-05T15:25:01.445Z,44.1
2023-05-05T15:26:17.683Z,43.9
2023-05-05T15:27:33.881Z,43.6
2023-05-05T15:28:50.165Z,44.4
2023-05-05T15:30:06.360Z,44.2
2023-05-05T15:31:22.613Z,43.8
2023-05-05T15:32:38.846Z,43.6
2023-05-05T15:33:54.092Z,43.7
2023-05-05T15:35:10.376Z,44
2023-05-05T15:36:26.614Z,43.6
2023-05-05T15:37:42.800Z,44.3
2023-05-05T15:38:59.045Z,44.8
2023-05-05T15:40:15.290Z,45.2
2023-05-05T15:41:31.559Z,45.2
2023-05-05T15:42:47.755Z,45.2
2023-05-05T15:44:04.050Z,44.5
2023-05-05T15:45:20.281Z,44.6
2023-05-05T15:46:36.471Z,44.3
2023-05-05T15:47:52.749Z,44
2023-05-05T15:49:08.948Z,44.7
2023-05-05T15:50:24.211Z,44.8
2023-05-05T15:51:40.483Z,44.5
2023-05-05T15:52:56.677Z,44.6
2023-05-05T15:54:12.961Z,45.8
2023-05-05T15:55:29.161Z,45.8
2023-05-05T15:56:45.436Z,46.3
2023-05-05T15:58:01.650Z,46.2
2023-05-05T15:59:17.916Z,45.5
2023-05-05T16:00:34.113Z,47
2023-05-05T16:01:50.352Z,46.3
2023-05-05T16:03:06.000Z,45.5
2023-05-05T16:04:22.879Z,46.1
2023-05-05T16:05:39.123Z,47.1
2023-05-05T16:06:54.366Z,46.4
2023-05-05T16:08:10.561Z,47
2023-05-05T16:09:26.815Z,46.7
2023-05-05T16:10:43.046Z,47.4
2023-05-05T16:11:59.285Z,47.1
2023-05-05T16:13:15.525Z,47
2023-05-05T16:14:31.764Z,46.7
2023-05-05T16:15:48.039Z,47
2023-05-05T16:17:04.231Z,46.7
2023-05-05T16:18:20.478Z,46.8
2023-05-05T16:19:36.723Z,47.4
2023-05-05T16:20:52.949Z,47.6
2023-05-05T16:22:09.205Z,47.4
2023-05-05T16:23:24.000Z,48.2
2023-05-05T16:24:40.681Z,47.2
2023-05-05T16:25:56.975Z,47.6
2023-05-05T16:27:13.000Z,47.8
2023-05-05T16:28:29.461Z,48.4
2023-05-05T16:29:45.652Z,48.1
2023-05-05T16:31:01.881Z,48.5
2023-05-05T16:32:18.133Z,48.1
2023-05-05T16:33:34.371Z,48.6
2023-05-05T16:34:50.640Z,48.6
2023-05-05T16:36:06.844Z,49.2
2023-05-05T16:37:23.123Z,49.3
2023-05-05T16:38:39.317Z,49.9
2023-05-05T16:39:54.626Z,49.8
2023-05-05T16:41:10.854Z,49
2023-05-05T16:42:27.057Z,49.4
2023-05-05T16:43:43.288Z,50.2
2023-05-05T16:44:59.535Z,50.4
2023-05-05T16:46:15.779Z,50
2023-05-05T16:47:32.056Z,50.9
2023-05-05T16:48:48.254Z,50.8
2023-05-05T16:50:04.542Z,50.7
2023-05-05T16:51:20.732Z,50.6
2023-05-05T16:52:36.970Z,50.1
2023-05-05T16:53:53.251Z,50.8
2023-05-05T16:55:09.485Z,51.2
2023-05-05T16:56:24.756Z,51.9
2023-05-05T16:57:40.933Z,51.8
2023-05-05T16:58:57.180Z,51.5
2023-05-05T17:00:13.472Z,51.1
2023-05-05T17:01:29.667Z,52.2
2023-05-05T17:02:45.891Z,52.3